Time;durP1;ratioP1;P1;durP2;ratioP2;P2;SDS_P1;SDS_P2;PMS_P1;PMS_P2;Temp;Humidity;BMP_temperature;BMP_pressure;BME280_temperature;BME280_humidity;BME280_pressure;Samples;Min_cycle;Max_cycle;Signal;HPM_P1;HPM_P2
2021/09/21 17:58:44;;;;;;;16.02;10.88;;;;;;;10.92;100.00;99568.16;2218146;80;23431;-83
2021/09/21 18:01:48;;;;;;;23.65;13.22;;;;;;;10.93;100.00;99566.34;2185241;81;21039;-84
2021/09/21 18:04:48;;;;;;;19.95;13.22;;;;;;;10.97;100.00;99566.34;2185171;81;20990;-84
2021/09/21 18:07:49;;;;;;;17.67;11.95;;;;;;;10.96;100.00;99562.91;2185293;81;21028;-85
2021/09/21 18:10:50;;;;;;;21.87;15.23;;;;;;;10.95;100.00;99565.20;2185579;81;20968;-86
2021/09/21 18:13:52;;;;;;;18.27;13.00;;;;;;;10.96;100.00;99564.22;2185362;81;21027;-87
2021/09/21 18:16:53;;;;;;;17.35;11.57;;;;;;;10.97;100.00;99566.34;2185338;81;20973;-87
2021/09/21 18:19:54;;;;;;;17.45;12.25;;;;;;;11.01;100.00;99572.42;2185325;81;20983;-87
2021/09/21 18:22:55;;;;;;;19.07;12.40;;;;;;;11.00;100.00;99569.97;2185431;81;21091;-89
2021/09/21 18:25:58;;;;;;;21.48;15.18;;;;;;;10.98;100.00;99572.76;2185633;81;21455;-86
2021/09/21 18:28:58;;;;;;;17.02;11.25;;;;;;;10.97;100.00;99559.80;2186550;81;20987;-86
2021/09/21 18:31:59;;;;;;;17.07;11.00;;;;;;;10.88;100.00;99555.52;2187128;81;21039;-87
2021/09/21 18:35:00;;;;;;;17.02;10.43;;;;;;;10.88;100.00;99555.52;2186100;81;20961;-89
2021/09/21 18:38:01;;;;;;;17.52;10.38;;;;;;;10.86;100.00;99554.87;2185518;81;21588;-88
2021/09/21 18:41:05;;;;;;;15.75;11.38;;;;;;;10.79;100.00;99539.81;2185651;81;20956;-88
2021/09/21 18:44:05;;;;;;;19.07;11.53;;;;;;;10.85;100.00;99551.42;2186281;81;21016;-87
2021/09/21 18:47:06;;;;;;;18.27;11.83;;;;;;;10.83;100.00;99554.70;2186387;81;21097;-87
2021/09/21 18:50:09;;;;;;;22.77;12.13;;;;;;;10.79;100.00;99552.91;2187603;81;20948;-84
2021/09/21 18:53:12;;;;;;;20.77;14.07;;;;;;;10.77;100.00;99550.91;2187787;81;20972;-84
2021/09/21 18:56:13;;;;;;;19.02;12.95;;;;;;;10.79;100.00;99551.59;2187886;81;20973;-84
2021/09/21 18:59:14;;;;;;;19.62;12.53;;;;;;;10.78;100.00;99545.19;2192656;81;21060;-86
2021/09/21 19:02:15;;;;;;;18.20;12.58;;;;;;;10.77;100.00;99548.30;2191793;81;21087;-89
2021/09/21 19:05:18;;;;;;;16.35;11.45;;;;;;;10.78;100.00;99544.69;2191875;81;21059;-89
2021/09/21 19:08:19;;;;;;;21.35;13.98;;;;;;;10.80;100.00;99557.16;2191825;81;21035;-89
2021/09/21 19:11:20;;;;;;;19.50;12.53;;;;;;;10.78;100.00;99552.55;2191641;81;20976;-88
2021/09/21 19:14:21;;;;;;;43.45;19.57;;;;;;;10.73;100.00;99561.39;2191693;81;20992;-88
2021/09/21 19:17:22;;;;;;;32.33;18.07;;;;;;;10.72;100.00;99560.25;2191750;81;20995;-88
2021/09/21 19:20:23;;;;;;;22.77;13.53;;;;;;;10.69;100.00;99559.24;2191600;81;21043;-90
2021/09/21 19:23:25;;;;;;;18.20;11.88;;;;;;;10.62;100.00;99551.22;2191697;81;20944;-88
2021/09/21 19:26:25;;;;;;;15.60;10.78;;;;;;;10.61;100.00;99563.98;2191492;81;21122;-88
2021/09/21 19:29:26;;;;;;;15.68;10.28;;;;;;;10.56;100.00;99563.63;2191844;81;21003;-86
2021/09/21 19:32:27;;;;;;;13.93;9.70;;;;;;;10.39;100.00;99562.75;2191260;81;21044;-87
2021/09/21 19:35:28;;;;;;;16.17;10.53;;;;;;;10.39;100.00;99562.75;2191707;81;21043;-89
2021/09/21 19:38:29;;;;;;;12.30;9.60;;;;;;;10.34;100.00;99566.83;2192132;81;21043;-90
2021/09/21 19:41:30;;;;;;;13.88;11.22;;;;;;;10.33;100.00;99556.00;2191710;81;20917;-89
2021/09/21 19:44:31;;;;;;;19.20;13.95;;;;;;;10.30;100.00;99551.91;2191498;81;20973;-89
2021/09/21 19:47:32;;;;;;;19.67;13.25;;;;;;;10.30;100.00;99549.78;2191618;81;21011;-88
2021/09/21 19:50:32;;;;;;;33.90;18.90;;;;;;;10.37;100.00;99550.31;2191894;81;21549;-87
2021/09/21 19:53:33;;;;;;;23.67;14.98;;;;;;;10.37;100.00;99549.00;2191770;81;21016;-86
2021/09/21 19:56:34;;;;;;;27.70;15.40;;;;;;;10.34;100.00;99543.27;2191574;81;21084;-87
2021/09/21 19:59:35;;;;;;;30.02;17.07;;;;;;;10.25;100.00;99541.93;2191591;81;21055;-87
2021/09/21 20:02:36;;;;;;;42.93;19.90;;;;;;;10.17;100.00;99547.09;2191511;81;21455;-87
2021/09/21 20:05:37;;;;;;;37.08;18.42;;;;;;;10.14;100.00;99543.95;2191493;81;21043;-89
2021/09/21 20:08:37;;;;;;;27.00;15.23;;;;;;;10.11;100.00;99535.93;2191118;81;21464;-88
2021/09/21 20:11:38;;;;;;;23.07;14.07;;;;;;;10.14;100.00;99534.79;2191454;81;21027;-86
2021/09/21 20:14:40;;;;;;;19.87;11.73;;;;;;;10.12;100.00;99527.10;2191324;81;21016;-86
2021/09/21 20:17:41;;;;;;;19.27;11.18;;;;;;;10.13;100.00;99535.77;2191598;81;21047;-88
2021/09/21 20:20:42;;;;;;;18.10;11.25;;;;;;;10.11;100.00;99534.63;2191540;81;21013;-88
2021/09/21 20:23:43;;;;;;;15.85;10.38;;;;;;;10.15;100.00;99530.73;2191640;81;21039;-88
2021/09/21 20:26:43;;;;;;;15.55;9.60;;;;;;;10.18;100.00;99521.73;2191456;81;21571;-88
2021/09/21 20:29:44;;;;;;;17.50;11.57;;;;;;;10.20;100.00;99519.29;2191518;81;21026;-87
2021/09/21 20:32:45;;;;;;;25.57;14.05;;;;;;;10.19;100.00;99523.38;2191528;81;20985;-89
2021/09/21 20:38:53;;;;;;;22.25;13.18;;;;;;;10.18;100.00;99523.05;2191438;81;21018;-86
2021/09/21 20:41:54;;;;;;;17.07;10.20;;;;;;;10.16;100.00;99521.90;2191703;81;20973;-87
2021/09/21 20:44:54;;;;;;;19.37;11.48;;;;;;;10.20;100.00;99519.29;2191546;81;21391;-86
2021/09/21 20:47:56;;;;;;;21.20;11.55;;;;;;;10.14;100.00;99515.16;2191523;81;21060;-86
2021/09/21 20:50:57;;;;;;;16.17;10.98;;;;;;;10.12;100.00;99515.33;2191879;81;21550;-87
2021/09/21 20:53:57;;;;;;;14.75;10.72;;;;;;;10.11;100.00;99524.64;2191217;81;20972;-87
2021/09/21 20:56:59;;;;;;;15.25;10.63;;;;;;;10.10;100.00;99516.47;2189856;81;21072;-86
2021/09/21 21:00:00;;;;;;;16.25;11.73;;;;;;;10.09;100.00;99514.83;2184568;81;21012;-86
2021/09/21 21:03:01;;;;;;;20.37;14.10;;;;;;;10.07;100.00;99511.06;2184535;81;20968;-87
2021/09/21 21:06:01;;;;;;;16.60;12.07;;;;;;;10.06;100.00;99510.73;2184340;81;21053;-86
2021/09/21 21:09:02;;;;;;;17.50;12.13;;;;;;;10.05;100.00;99514.30;2184353;81;21610;-86
2021/09/21 21:12:03;;;;;;;27.27;19.50;;;;;;;9.96;100.00;99511.31;2184181;81;21023;-87
2021/09/21 21:15:04;;;;;;;27.82;16.00;;;;;;;9.96;100.00;99511.31;2184612;81;21483;-86
2021/09/21 21:18:05;;;;;;;22.65;13.70;;;;;;;9.98;100.00;99497.61;2184364;81;21032;-87
2021/09/21 21:21:06;;;;;;;27.62;16.20;;;;;;;9.97;100.00;99505.14;2184595;81;20993;-87
2021/09/21 21:24:07;;;;;;;18.20;12.50;;;;;;;9.95;100.00;99503.14;2184489;81;20991;-86
2021/09/21 21:27:08;;;;;;;18.60;12.55;;;;;;;9.91;100.00;99505.26;2184439;81;21068;-86
2021/09/21 21:30:09;;;;;;;18.05;11.50;;;;;;;9.90;100.00;99505.42;2184601;81;21562;-86
2021/09/21 21:33:10;;;;;;;20.68;12.70;;;;;;;9.84;100.00;99497.70;2184611;81;20965;-85
2021/09/21 21:36:10;;;;;;;19.82;12.75;;;;;;;9.83;100.00;99492.63;2184582;81;21055;-86
2021/09/21 21:39:11;;;;;;;21.65;12.28;;;;;;;9.84;100.00;99495.57;2184478;81;21024;-87
2021/09/21 21:42:12;;;;;;;16.80;11.63;;;;;;;9.80;100.00;99496.38;2184591;81;21004;-87
2021/09/21 21:45:13;;;;;;;16.02;10.68;;;;;;;9.80;100.00;99495.07;2184569;81;20996;-87
2021/09/21 21:48:14;;;;;;;17.40;12.80;;;;;;;9.80;100.00;99493.77;2184550;81;21008;-87
2021/09/21 21:51:14;;;;;;;19.07;12.98;;;;;;;9.76;100.00;99494.22;2184605;81;21056;-86
2021/09/21 21:54:15;;;;;;;18.90;12.93;;;;;;;9.74;100.00;99490.94;2184534;81;21542;-86
2021/09/21 21:57:16;;;;;;;17.92;12.80;;;;;;;9.69;100.00;99492.70;2185710;81;21016;-87
2021/09/21 22:00:17;;;;;;;25.50;16.07;;;;;;;9.69;100.00;99484.39;2191649;81;21558;-87
2021/09/21 22:03:18;;;;;;;22.37;15.45;;;;;;;9.68;100.00;99488.45;2191374;81;20980;-87
2021/09/21 22:06:19;;;;;;;19.00;13.15;;;;;;;9.67;100.00;99477.66;2191435;81;21538;-87
2021/09/21 22:09:20;;;;;;;21.68;13.83;;;;;;;9.64;100.00;99474.87;2192176;81;21001;-84
2021/09/21 22:12:21;;;;;;;19.90;13.62;;;;;;;9.60;100.00;99480.09;2193183;81;21493;-84
2021/09/21 22:15:22;;;;;;;19.42;13.15;;;;;;;9.58;100.00;99475.97;2193412;81;20965;-85
2021/09/21 22:18:22;;;;;;;16.50;12.37;;;;;;;9.53;100.00;99473.84;2192297;81;21003;-87
2021/09/21 22:21:23;;;;;;;17.42;12.85;;;;;;;9.48;100.00;99474.77;2191453;81;21503;-87
2021/09/21 22:24:24;;;;;;;28.40;14.50;;;;;;;9.49;100.00;99470.36;2191386;81;20988;-88
2021/09/21 22:27:25;;;;;;;19.10;12.75;;;;;;;9.49;100.00;99471.67;2191264;81;21035;-88
2021/09/21 22:30:26;;;;;;;15.43;12.05;;;;;;;9.51;100.00;99477.09;2191509;81;21436;-88
2021/09/21 22:33:26;;;;;;;17.92;12.20;;;;;;;9.54;100.00;99467.63;2191695;81;20995;-89
2021/09/21 22:36:27;;;;;;;16.27;11.73;;;;;;;9.53;100.00;99465.99;2191542;81;20989;-86
2021/09/21 22:39:28;;;;;;;16.82;12.20;;;;;;;9.54;100.00;99462.89;2191703;81;22084;-86
2021/09/21 22:42:29;;;;;;;19.37;12.88;;;;;;;9.56;100.00;99460.93;2191682;81;20984;-87
2021/09/21 22:45:30;;;;;;;14.55;11.53;;;;;;;9.59;100.00;99461.43;2191620;81;20952;-88
2021/09/21 22:48:30;;;;;;;20.92;13.15;;;;;;;9.58;100.00;99449.83;2191645;81;21520;-87
2021/09/21 22:51:31;;;;;;;16.82;11.78;;;;;;;9.56;100.00;99444.76;2191487;81;21035;-86
2021/09/21 22:54:32;;;;;;;20.90;14.85;;;;;;;9.55;100.00;99446.22;2191733;81;20972;-86
2021/09/21 22:57:34;;;;;;;17.50;13.40;;;;;;;9.54;100.00;99438.88;2190230;81;21064;-86
2021/09/21 23:00:34;;;;;;;18.27;12.82;;;;;;;9.54;100.00;99436.25;2184616;81;21595;-86
2021/09/21 23:03:35;;;;;;;20.15;13.75;;;;;;;9.55;100.00;99426.61;2184572;81;20992;-88
2021/09/21 23:06:36;;;;;;;18.87;13.58;;;;;;;9.59;100.00;99421.39;2184156;81;21406;-87
2021/09/21 23:09:37;;;;;;;19.82;13.75;;;;;;;9.60;100.00;99419.11;2184635;81;21088;-89
2021/09/21 23:12:38;;;;;;;23.80;14.90;;;;;;;9.60;100.00;99417.34;2184524;81;20965;-88
2021/09/21 23:15:39;;;;;;;18.50;11.90;;;;;;;9.62;100.00;99416.69;2184752;81;21052;-87
2021/09/21 23:18:40;;;;;;;15.78;12.23;;;;;;;9.60;100.00;99401.66;2184609;81;21016;-87
2021/09/21 23:21:40;;;;;;;19.17;13.95;;;;;;;9.64;100.00;99407.37;2184465;81;21531;-87
2021/09/21 23:24:41;;;;;;;21.75;13.70;;;;;;;9.68;100.00;99401.66;2184487;81;20984;-88
2021/09/21 23:27:42;;;;;;;19.90;13.40;;;;;;;9.72;100.00;99398.27;2184507;81;21012;-88
2021/09/21 23:30:43;;;;;;;17.90;13.62;;;;;;;9.76;100.00;99394.34;2184574;81;21048;-88
2021/09/21 23:33:44;;;;;;;16.85;12.82;;;;;;;9.72;100.00;99378.66;2184473;81;21504;-88
2021/09/21 23:36:44;;;;;;;17.70;13.53;;;;;;;9.82;100.00;99392.42;2184469;81;21056;-88
2021/09/21 23:39:45;;;;;;;20.30;13.72;;;;;;;9.86;100.00;99394.22;2184443;81;21048;-88
2021/09/21 23:42:47;;;;;;;22.02;13.48;;;;;;;9.87;100.00;99390.63;2184607;81;21012;-85
2021/09/21 23:45:48;;;;;;;17.92;13.25;;;;;;;9.89;100.00;99384.77;2184699;81;21508;-87
2021/09/21 23:48:48;;;;;;;16.70;12.82;;;;;;;9.89;100.00;99385.58;2184838;81;20976;-88
2021/09/21 23:51:49;;;;;;;18.15;12.93;;;;;;;9.86;100.00;99378.52;2184537;81;21488;-86
2021/09/21 23:54:50;;;;;;;15.65;11.63;;;;;;;9.85;100.00;99379.50;2184584;81;20921;-86
2021/09/21 23:57:51;;;;;;;16.50;11.90;;;;;;;9.86;100.00;99379.34;2184572;81;21586;-87
